Youngstown, Missouri
Current Conditions -  °F | °C
As of 4:55 AM on Tuesday 21 Oct 2014 (Local Time) from KIRK Reporting Station
Clear Clear  
Wind Chill: 41°   Ceiling: Unl
Heat Index: 41°   Visibility: 10mi
Dew Point: 40°   Wind: 3mph
Humidity: 96%   Direction: 340°NNW
Pressure: 30.09"   Gusts: NA
Location:  40.2969°N, 92.7524°W
Report Text: KIRK 210955Z AUTO 34003KT 10SM CLR 05/04 A3009 RMK AO2 SLP192 T00500044
Loading
Personal Weather Stations






























Interactive Weather Map
Tropical Storm Tracking
New forecast layout! Learn more

10-Day Weather Forecast

Advertisements
Track Severe Weather on mobile